Pioche, Nevada Weather observations

Data are for observation ending at time listed.
 Day   Time    Ave.   Ave.  Ave.  Vector   Max.   Stn.    Total    Solar   Ave.  
  of    of     Air    Rel.  Wind   Wind    Wind   Baro.  Precip.   Rad.    Soil  
Year   Day     Temp.  Hum.  Speed  Dir.    Gust   Pres.                    Temp. 
2026   (PST)    F      %     mph   deg.    mph     mb.     in.     W/m2     F   
------------------------------------------------------------------------------
 123   11:40   70.1    12    8.1   135     17.0   817.8    0.00    1109    57.0
 123   11:50   69.8    12    8.3   146     20.0   817.6    0.00     480    57.1
 123   12:00   70.5    12    5.1   142     11.6   817.5    0.00    1146    57.2
 123   12:10   70.7    12    6.9   149     16.1   817.4    0.00    1030    57.2
 123   12:20   70.6    13    7.1   143     18.8   817.2    0.00    1030    57.3
 123   12:30   71.5    13    8.9   128     17.9   817.2    0.00    1233    57.3
 123   12:40   71.7    13    7.3    98     14.5   817.0    0.00    1156    57.4
 123   12:50   71.8    12    8.3   129     17.0   816.9    0.00    1188    57.5
 123   13:00   72.1    13    7.7   129     17.5   816.8    0.00    1109    57.5
 123   13:10   70.7    13    7.9   114     17.2   816.6    0.00     825    57.6
 123   13:20   71.2    13    5.6   129     13.2   816.5    0.00    1029    57.7
 123   13:30   71.4    13    5.3   121     11.3   816.3    0.00     344    57.7
 123   13:40   70.4    13    6.1   143     12.2   816.2    0.00     261    57.8
 123   13:50   69.7    13    7.1   104     14.6   816.0    0.00     633    57.8
 123   14:00   72.0    12    7.6   109     16.5   815.7    0.00     993    58.0
 123   14:10   71.5    12    7.4   130     14.9   815.7    0.00     985    58.1
 123   14:20   72.2    12    5.5   118     12.8   815.5    0.00     982    58.1
 123   14:30   71.9    12    9.8   122     19.4   815.4    0.00     870    58.2
 123   14:40   71.7    12    7.9   151     18.7   815.3    0.00     694    58.3
 123   14:50   71.3    12    4.4   139     11.1   815.1    0.00     154    58.4
 123   15:00   71.0    13    9.1   130     24.6   815.0    0.00     112    58.4
 123   15:10   70.8    12    6.7   146     15.9   814.9    0.00      74    58.5
 123   15:20   70.7    13    6.6   156     15.3   814.8    0.00      68    58.6
 123   15:30   70.4    12    8.0   142     16.2   814.7    0.00      69    58.7
 123   15:40   70.3    13    6.3   144     14.5   814.6    0.00      96    58.8
 123   15:50   70.2    13    6.4   148     15.7   814.5    0.00     111    58.9
 123   16:00   70.3    13    8.8   126     17.5   814.4    0.00      96    58.9
 123   16:10   70.1    13    8.2   128     14.9   814.4    0.00     136    59.0
 123   16:20   69.8    15   13.1   111     23.9   814.3    0.00     126    59.1
 123   16:30   68.6    16   10.4   113     19.2   814.3    0.00      98    59.1
 123   16:40   68.7    16    9.1   112     16.9   814.2    0.00      98    59.2
 123   16:50   68.5    16    7.9   118     16.0   814.2    0.00      93    59.3
 123   17:00   68.4    16    6.6   117     13.6   814.2    0.00      90    59.3
 123   17:10   68.4    16    4.8   117      9.6   814.2    0.00      82    59.4
 123   17:20   68.1    15    6.1   122     13.3   814.1    0.00      66    59.5
 123   17:30   67.9    15    5.8   126     12.0   814.1    0.00      36    59.5
 123   17:40   67.1    16    7.3   184     13.0   814.3    0.00      20    59.5
 123   17:50   66.1    18    7.9   147     16.8   814.4    0.00      19    59.6
 123   18:00   65.2    20    7.4   144     20.0   814.4    0.00      13    59.6
 123   18:10   64.5    21    5.5   179     14.3   814.4    0.00       9    59.6
 123   18:20   63.9    22    4.2   172      7.9   814.4    0.00       6    59.7
 123   18:30   63.7    22    5.8   143     11.2   814.4    0.00       2    59.7
 123   18:40   63.6    22    3.9   143      8.8   814.5    0.00       0    59.7
 123   18:50   63.3    22    7.8   128     19.5   814.8    0.00       0    59.8
 123   19:00   62.3    26    9.3   138     23.6   815.2    0.00       0    59.8
 123   19:10   61.5    28    8.8   138     18.3   815.4    0.00       0    59.8
 123   19:20   61.5    27    5.4    98     10.1   815.3    0.00       0    59.8
 123   19:30   60.6    30    6.1    94     12.8   815.4    0.00       0    59.8
 123   19:40   59.7    32    4.4   104      6.6   815.4    0.00       0    59.9
 123   19:50   59.8    32    5.3   113      9.1   815.6    0.00       0    59.9
 123   20:00   60.3    31    6.4   121     10.5   815.8    0.00       0    59.9
 123   20:10   60.1    32    1.7    82      4.7   815.4    0.00       0    59.9
 123   20:20   59.7    33    3.5    92      5.1   815.4    0.00       0    59.9
 123   20:30   59.1    34    4.9   118      7.7   815.6    0.00       0    60.0
 123   20:40   59.3    33    4.4   119      6.9   815.9    0.00       0    60.0
 123   20:50   59.0    35    5.6   115     11.3   816.0    0.00       0    60.0
 123   21:00   58.6    36    5.8   125      9.5   816.0    0.00       0    60.0
 123   21:10   58.2    37    3.3   105      6.4   815.9    0.00       0    60.0
 123   21:20   57.9    38    3.4   102      5.7   815.8    0.00       0    60.0
 123   21:30   57.2    40    3.3    91      4.7   815.8    0.00       0    59.9
 123   21:40   57.3    40    3.3   118      5.4   815.8    0.00       0    60.0
 123   21:50   57.5    39    3.0   116      5.0   815.7    0.00       0    59.9
 123   22:00   57.2    39    3.5   112      5.3   815.7    0.00       0    60.0
 123   22:10   57.2    39    4.7   111      7.9   815.6    0.00       0    60.0
 123   22:20   57.2    39    4.1   102      6.8   815.6    0.00       0    60.0
 123   22:30   57.2    39    3.7    98      5.6   815.4    0.00       0    60.0
 123   22:40   57.0    39    2.8   103      4.5   815.3    0.00       0    60.0
 123   22:50   57.0    39    2.4   115      5.4   815.3    0.00       0    60.0
 123   23:00   56.9    39    2.2   119      3.9   815.5    0.00       0    59.9
 123   23:10   56.9    39    0.5   128      1.8   815.3    0.00       0    60.0
 123   23:20   56.3    42    0.2   129      0.9   815.4    0.00       0    59.9
 123   23:30   55.2    44    0.4   206      1.5   815.4    0.00       0    59.9
 123   23:40   54.2    47    0.5   255      1.6   815.2    0.00       0    60.0
 123   23:50   53.4    47    1.3   158      2.9   815.1    0.00       0    59.9
 124    0:00   53.8    46    0.9   151      2.0   815.1    0.00       0    59.9
 124    0:10   53.3    46    0.5   197      1.5   815.2    0.00       0    59.9
 124    0:20   52.0    49    0.6   174      2.5   815.1    0.00       0    59.9
 124    0:30   51.5    50    2.4   143      4.1   814.9    0.00       0    59.9
 124    0:40   51.7    48    1.9   161      4.9   814.9    0.00       0    59.9
 124    0:50   51.7    49    1.8   145      4.7   814.8    0.00       0    59.9
 124    1:00   51.4    50    0.3   203      2.4   814.7    0.00       0    59.8
 124    1:10   50.5    51    1.4   186      2.8   814.7    0.00       0    59.8
 124    1:20   51.3    49    2.7   147      4.1   814.7    0.00       0    59.8
 124    1:30   51.5    48    0.6   153      2.3   814.7    0.00       0    59.8
 124    1:40   50.6    50    0.9   179      2.4   814.6    0.00       0    59.8
 124    1:50   50.2    51    2.6   146      4.5   814.6    0.00       0    59.8
 124    2:00   49.9    51    4.1   147      5.6   814.7    0.00       0    59.8
 124    2:10   50.1    51    4.3   149      5.7   814.7    0.00       0    59.7
 124    2:20   50.3    52    1.8   148      4.7   814.7    0.00       0    59.7
 124    2:30   51.4    47    4.5   129      7.7   814.8    0.00       0    59.7
 124    2:40   51.6    48    3.8   116      6.6   814.9    0.00       0    59.6
 124    2:50   51.4    47    3.2   128      4.7   814.9    0.00       0    59.6
 124    3:00   51.8    46    3.4    99      5.7   814.9    0.00       0    59.6
 124    3:10   50.8    49    1.3   122      2.3   814.9    0.00       0    59.6
 124    3:20   49.1    53    0.6   256      2.3   814.8    0.00       0    59.5
 124    3:30   47.9    55    0.9   172      1.9   814.7    0.00       0    59.5
 124    3:40   47.9    55    2.6   150      5.0   814.7    0.00       0    59.5
 124    3:50   47.9    56    0.3   154      1.8   814.6    0.00       0    59.5
 124    4:00   47.5    57    2.4   148      4.7   814.5    0.00       0    59.5
 124    4:10   47.8    56    2.6   149      4.7   814.4    0.00       0    59.5
 124    4:20   47.6    57    1.0   154      2.3   814.3    0.00       0    59.4
 124    4:30   47.5    57    3.5   147      4.9   814.3    0.00       0    59.4
 124    4:40   47.6    56    2.6   159      5.0   814.3    0.00       1    59.3
 124    4:50   46.8    58    1.4   179      2.4   814.3    0.00       7    59.3
 124    5:00   47.4    57    3.1   148      4.7   814.3    0.00      12    59.3
 124    5:10   47.6    58    2.1   149      3.9   814.3    0.00      18    59.3
 124    5:20   49.2    54    2.8   143      5.6   814.4    0.00      26    59.2
 124    5:30   50.0    54    1.1    80      3.2   814.5    0.00      35    59.2
 124    5:40   50.2    53    0.1   122      0.7   814.6    0.00      42    59.2
 124    5:50   51.4    51    1.4   113      5.7   814.7    0.00      52    59.1
 124    6:00   54.1    45    4.5   129      7.6   814.7    0.00     143    59.1
 124    6:10   54.8    43    6.1   137     10.4   814.9    0.00     142    59.1
 124    6:20   54.7    43    7.1   126     11.5   815.0    0.00     140    59.0
 124    6:30   54.3    44    6.8   118     10.5   815.0    0.00      81    59.0
 124    6:40   53.9    44    4.7   114     10.5   814.8    0.00      71    58.9
 124    6:50   53.4    48    1.1    87      5.0   814.8    0.00     121    58.9
 124    7:00   53.7    50    0.9   359      3.2   814.9    0.00     334    59.0
 124    7:10   55.9    45    2.0   159      6.7   814.9    0.00     401    59.0
 124    7:20   56.9    40    5.8   137     11.2   815.0    0.00     561    59.0
 124    7:30   57.6    39    5.9   144     11.8   814.9    0.00     572    58.9
 124    7:40   57.9    38    5.9   115     10.4   814.9    0.00     607    58.9
 124    7:50   58.7    37    6.7   103     13.7   814.8    0.00     643    58.9
 124    8:00   58.8    37    9.2   105     14.8   814.7    0.00     677    58.9
 124    8:10   59.3    36    8.5   116     14.5   814.7    0.00     714    58.9
 124    8:20   59.0    35    9.4   118     17.6   814.7    0.00     757    58.9
 124    8:30   59.4    34    8.9   122     14.5   814.7    0.00     688    58.9
 124    8:40   59.9    34    9.7   117     16.7   814.6    0.00     886    58.9
 124    8:50   60.1    35   11.0   120     20.2   814.6    0.00     834    58.9
 124    9:00   60.8    35    9.8   125     18.8   814.5    0.00     873    58.9
 124    9:10   60.8    34    8.0   144     22.2   814.5    0.00     897    58.9
 124    9:20   61.9    33    8.1   128     16.3   814.4    0.00     926    58.9
 124    9:30   62.1    33   10.2   118     20.5   814.5    0.00     981    58.9
 124    9:40   62.4    33   10.2   112     21.8   814.4    0.00     877    58.9
 124    9:50   62.4    33    9.2   123     18.2   814.5    0.00     772    58.9
 124   10:00   62.5    32   13.5   112     21.7   814.4    0.00    1107    58.9
 124   10:10   61.7    33   13.4   122     24.9   814.4    0.00     727    58.9
 124   10:20   62.1    32    9.5   120     17.2   814.4    0.00     707    58.8
 124   10:30   62.4    31   12.2   114     22.9   814.3    0.00    1023    58.9
 124   10:40   62.3    31   11.0   127     21.8   814.3    0.00     867    58.9
 124   10:50   62.9    31   12.6   115     26.9   814.1    0.00    1084    58.9
 124   11:00   63.1    30   12.5   113     20.9   814.1    0.00    1105    58.9
 124   11:10   63.0    29   12.7   111     22.0   814.0    0.00    1136    58.9
 124   11:20   63.4    28   11.3   112     20.2   813.8    0.00     777    58.9
 124   11:30   62.6    27   12.5   113     22.4   813.9    0.00     885    59.0

Return to Pioche, Nevada graphs page.


Western Regional Climate Center,wrcc@dri.edu